createdAt,value
2023-11-21T00:01:43.233Z,7.10
2023-11-21T00:04:10.780Z,5.00
2023-11-21T00:06:38.336Z,4.93
2023-11-21T00:09:06.279Z,5.83
2023-11-21T00:11:35.300Z,7.87
2023-11-21T00:14:04.004Z,6.10
2023-11-21T00:16:31.558Z,7.60
2023-11-21T00:18:59.062Z,7.23
2023-11-21T00:21:26.534Z,6.80
2023-11-21T00:23:54.274Z,7.27
2023-11-21T00:26:21.786Z,7.03
2023-11-21T00:28:51.344Z,6.57
2023-11-21T00:31:18.978Z,6.00
2023-11-21T00:33:46.519Z,6.37
2023-11-21T00:36:14.145Z,8.47
2023-11-21T00:38:41.640Z,6.30
2023-11-21T00:41:09.230Z,6.70
2023-11-21T00:43:36.754Z,7.40
2023-11-21T00:46:09.123Z,5.57
2023-11-21T00:48:36.935Z,7.30
2023-11-21T00:51:04.555Z,5.87
2023-11-21T00:53:32.011Z,5.67
2023-11-21T00:55:59.574Z,5.67
2023-11-21T00:58:27.085Z,6.37
2023-11-21T01:00:54.896Z,6.07
2023-11-21T01:03:23.942Z,6.83
2023-11-21T01:05:51.614Z,6.43
2023-11-21T01:08:18.131Z,7.20
2023-11-21T01:10:46.588Z,8.37
2023-11-21T01:13:16.308Z,7.23
2023-11-21T01:15:43.769Z,7.90
2023-11-21T01:18:11.259Z,6.37
2023-11-21T01:20:41.135Z,6.27
2023-11-21T01:23:08.640Z,8.43
2023-11-21T01:25:36.865Z,9.50
2023-11-21T01:28:04.521Z,5.50
2023-11-21T01:30:33.580Z,8.03
2023-11-21T01:33:01.297Z,6.67
2023-11-21T01:35:28.862Z,7.73
2023-11-21T01:37:57.692Z,6.63
2023-11-21T01:40:25.799Z,7.63
2023-11-21T01:42:55.595Z,6.40
2023-11-21T01:45:23.113Z,8.73
2023-11-21T01:47:50.959Z,7.23
2023-11-21T01:50:20.147Z,7.43
2023-11-21T01:52:48.822Z,7.40
2023-11-21T01:55:27.375Z,9.57
2023-11-21T01:57:56.865Z,8.90
2023-11-21T02:00:24.945Z,10.03
2023-11-21T02:02:53.368Z,7.50
2023-11-21T02:05:23.085Z,7.23
2023-11-21T02:07:51.369Z,7.43
2023-11-21T02:10:23.686Z,9.00
2023-11-21T02:12:52.488Z,8.70
2023-11-21T02:15:22.035Z,8.87
2023-11-21T02:17:52.221Z,7.50
2023-11-21T02:20:20.953Z,8.93
2023-11-21T02:22:54.015Z,8.33
2023-11-21T02:25:21.542Z,6.87
2023-11-21T02:27:49.275Z,7.13
2023-11-21T02:30:17.173Z,6.77
2023-11-21T02:32:49.030Z,8.47
2023-11-21T02:35:17.863Z,8.17
2023-11-21T02:37:45.457Z,6.83
2023-11-21T02:40:18.971Z,8.40
2023-11-21T02:42:46.818Z,9.87
2023-11-21T02:45:17.687Z,7.37
2023-11-21T02:47:45.573Z,10.40
2023-11-21T02:50:13.892Z,10.10
2023-11-21T02:52:41.812Z,12.23
2023-11-21T02:55:09.994Z,9.20
2023-11-21T02:57:38.842Z,10.67
2023-11-21T03:00:08.570Z,10.33
2023-11-21T03:02:37.760Z,11.33
2023-11-21T03:05:06.441Z,9.20
2023-11-21T03:07:33.995Z,11.83
2023-11-21T03:10:01.661Z,10.57
2023-11-21T03:12:29.186Z,11.23
2023-11-21T03:14:58.019Z,11.37
2023-11-21T03:17:25.907Z,11.63
2023-11-21T03:19:54.359Z,13.00
2023-11-21T03:22:21.941Z,10.87
2023-11-21T03:24:49.451Z,11.70
2023-11-21T03:27:16.957Z,9.10
2023-11-21T03:29:45.043Z,12.43
2023-11-21T03:32:13.872Z,10.07
2023-11-21T03:34:56.199Z,10.20
2023-11-21T03:37:23.905Z,10.13
2023-11-21T03:39:51.425Z,10.53
2023-11-21T03:42:18.993Z,10.57
2023-11-21T03:44:46.463Z,11.43
2023-11-21T03:47:15.313Z,11.87
2023-11-21T03:49:42.844Z,11.77
2023-11-21T03:52:10.933Z,12.13
2023-11-21T03:54:38.464Z,13.43
2023-11-21T03:57:06.555Z,12.10
2023-11-21T03:59:34.035Z,14.73
2023-11-21T04:02:01.546Z,13.83
2023-11-21T04:04:30.439Z,13.27
2023-11-21T04:06:57.963Z,13.17
2023-11-21T04:09:26.333Z,13.50
2023-11-21T04:11:53.898Z,13.73
2023-11-21T04:14:21.365Z,14.50
2023-11-21T04:16:49.483Z,15.00
2023-11-21T04:19:18.187Z,15.37
2023-11-21T04:21:47.238Z,12.17
2023-11-21T04:24:14.868Z,10.70
2023-11-21T04:26:42.339Z,10.87
2023-11-21T04:29:09.836Z,8.63
2023-11-21T04:31:38.001Z,6.77
2023-11-21T04:34:06.333Z,4.70
2023-11-21T04:36:33.857Z,4.30
2023-11-21T04:39:02.825Z,3.63
2023-11-21T04:41:32.544Z,2.27
2023-11-21T04:44:01.737Z,2.40
2023-11-21T04:46:29.471Z,2.97
2023-11-21T04:48:57.036Z,2.73
2023-11-21T04:51:24.526Z,2.10
2023-11-21T04:53:52.067Z,2.83
2023-11-21T04:56:20.942Z,1.77
2023-11-21T04:58:48.393Z,1.47
2023-11-21T05:01:15.914Z,2.97
2023-11-21T05:03:43.598Z,2.17
2023-11-21T05:06:11.984Z,1.30
2023-11-21T05:08:39.439Z,1.20
2023-11-21T05:11:08.207Z,1.20
2023-11-21T05:13:37.231Z,1.57
2023-11-21T05:16:07.269Z,1.23
2023-11-21T05:18:35.538Z,1.67
2023-11-21T05:21:04.488Z,1.63
2023-11-21T05:23:31.982Z,2.60
2023-11-21T05:25:59.456Z,1.93
2023-11-21T05:28:27.023Z,2.37
2023-11-21T05:31:03.629Z,2.40
2023-11-21T05:33:38.122Z,4.97
2023-11-21T05:36:08.924Z,5.00
2023-11-21T05:38:37.327Z,5.50
2023-11-21T05:41:05.153Z,5.67
2023-11-21T05:43:33.669Z,5.97
2023-11-21T05:46:02.586Z,6.73
2023-11-21T05:48:30.147Z,6.77
2023-11-21T05:50:57.645Z,7.07
2023-11-21T05:53:25.118Z,9.57
2023-11-21T05:55:53.201Z,7.57
2023-11-21T05:58:20.999Z,7.63
2023-11-21T06:00:48.498Z,8.53
2023-11-21T06:03:18.366Z,7.97
2023-11-21T06:05:45.940Z,8.73
2023-11-21T06:08:13.557Z,8.87
2023-11-21T06:10:41.493Z,8.93
2023-11-21T06:13:09.095Z,9.90
2023-11-21T06:15:36.555Z,10.47
2023-11-21T06:18:04.222Z,9.37
2023-11-21T06:20:33.112Z,9.30
2023-11-21T06:23:04.477Z,9.33
2023-11-21T06:25:34.121Z,9.33
2023-11-21T06:28:01.631Z,10.67
2023-11-21T06:30:29.960Z,9.30
2023-11-21T06:32:57.593Z,10.47
2023-11-21T06:35:25.436Z,11.17
2023-11-21T06:37:54.338Z,11.90
2023-11-21T06:40:22.354Z,10.40
2023-11-21T06:42:50.946Z,9.57
2023-11-21T06:45:18.800Z,10.20
2023-11-21T06:47:46.735Z,10.10
2023-11-21T06:50:14.586Z,11.13
2023-11-21T06:52:42.186Z,12.77
2023-11-21T06:55:11.795Z,11.57
2023-11-21T06:57:40.107Z,15.67
2023-11-21T07:00:09.996Z,15.33
2023-11-21T07:02:37.663Z,15.97
2023-11-21T07:05:06.864Z,21.13
2023-11-21T07:07:36.543Z,12.03
2023-11-21T07:10:04.484Z,11.20
2023-11-21T07:12:33.503Z,13.27
2023-11-21T07:15:01.024Z,10.27
2023-11-21T07:17:28.891Z,10.13
2023-11-21T07:19:56.497Z,9.83
2023-11-21T07:22:24.162Z,9.43
2023-11-21T07:24:52.733Z,10.17
2023-11-21T07:27:20.606Z,9.87
2023-11-21T07:29:50.191Z,10.20
2023-11-21T07:32:17.842Z,9.50
2023-11-21T07:34:45.423Z,10.70
2023-11-21T07:37:13.545Z,8.90
2023-11-21T07:39:42.891Z,8.70
2023-11-21T07:42:12.245Z,9.60
2023-11-21T07:44:39.794Z,10.17
2023-11-21T07:47:08.668Z,10.93
2023-11-21T07:49:36.207Z,8.30
2023-11-21T07:52:04.635Z,8.73
2023-11-21T07:54:32.284Z,9.07
2023-11-21T07:56:59.725Z,10.33
2023-11-21T07:59:27.169Z,9.70
2023-11-21T08:01:55.157Z,9.37
2023-11-21T08:04:24.474Z,8.83
2023-11-21T08:06:52.022Z,8.90
2023-11-21T08:09:19.604Z,9.03
2023-11-21T08:11:47.725Z,9.97
2023-11-21T08:14:15.967Z,10.07
2023-11-21T08:16:43.600Z,9.20
2023-11-21T08:19:11.336Z,9.53
2023-11-21T08:21:41.072Z,9.57
2023-11-21T08:24:11.747Z,10.00
2023-11-21T08:26:39.298Z,12.90
2023-11-21T08:29:07.990Z,11.27
2023-11-21T08:31:35.737Z,9.97
2023-11-21T08:34:04.138Z,9.30
2023-11-21T08:36:32.561Z,8.03
2023-11-21T08:39:02.288Z,9.10
2023-11-21T08:41:29.930Z,7.87
2023-11-21T08:43:59.286Z,9.87
2023-11-21T08:46:27.216Z,9.43
2023-11-21T08:48:54.797Z,8.73
2023-11-21T08:51:22.452Z,8.33
2023-11-21T08:53:49.982Z,8.87
2023-11-21T08:56:19.651Z,7.50
2023-11-21T08:58:47.815Z,7.90
2023-11-21T09:01:15.632Z,8.20
2023-11-21T09:03:44.649Z,6.77
2023-11-21T09:06:15.221Z,6.17
2023-11-21T09:08:43.137Z,7.27
2023-11-21T09:11:10.654Z,5.17
2023-11-21T09:13:39.508Z,6.27
2023-11-21T09:16:07.786Z,5.65
2023-11-21T09:18:35.299Z,7.45
2023-11-21T09:21:02.835Z,4.47
2023-11-21T09:23:30.340Z,7.20
2023-11-21T09:25:58.431Z,4.38
2023-11-21T09:28:26.161Z,6.43
2023-11-21T09:30:55.089Z,5.53
2023-11-21T09:33:23.245Z,5.43
2023-11-21T09:35:51.909Z,5.38
2023-11-21T09:38:19.902Z,4.53
2023-11-21T09:40:47.777Z,5.28
2023-11-21T09:43:19.820Z,5.40
2023-11-21T09:45:49.493Z,4.93
2023-11-21T09:48:19.013Z,5.03
2023-11-21T09:50:51.829Z,5.80
2023-11-21T09:53:22.092Z,4.13
2023-11-21T09:55:52.398Z,4.03
2023-11-21T09:58:21.007Z,4.30
2023-11-21T10:00:50.042Z,4.40
2023-11-21T10:03:19.327Z,5.43
2023-11-21T10:05:47.875Z,5.47
2023-11-21T10:08:15.856Z,5.13
2023-11-21T10:10:46.631Z,5.63
2023-11-21T10:13:18.217Z,5.40
2023-11-21T10:15:51.339Z,5.03
2023-11-21T10:18:20.655Z,7.18
2023-11-21T10:20:52.972Z,4.82
2023-11-21T10:23:22.751Z,5.03
2023-11-21T10:25:50.761Z,4.60
2023-11-21T10:28:18.350Z,4.00
2023-11-21T10:30:46.569Z,6.07
2023-11-21T10:33:14.158Z,4.93
2023-11-21T10:35:47.978Z,5.22
2023-11-21T10:38:15.847Z,4.97
2023-11-21T10:40:43.635Z,4.57
2023-11-21T10:43:11.952Z,7.95
2023-11-21T10:45:39.896Z,4.38
2023-11-21T10:48:09.183Z,4.88
2023-11-21T10:50:37.259Z,4.70
2023-11-21T10:53:07.128Z,3.85
2023-11-21T10:55:34.508Z,4.95
2023-11-21T10:58:04.409Z,4.47
2023-11-21T11:00:32.569Z,5.40
2023-11-21T11:03:01.727Z,4.88
2023-11-21T11:05:30.786Z,4.05
2023-11-21T11:08:02.215Z,4.35
2023-11-21T11:10:31.425Z,4.35
2023-11-21T11:12:59.825Z,5.47
2023-11-21T11:15:28.329Z,5.70
2023-11-21T11:17:58.773Z,5.33
2023-11-21T11:20:34.249Z,7.17
2023-11-21T11:23:15.910Z,5.40
2023-11-21T11:26:00.347Z,4.63
2023-11-21T11:28:38.277Z,5.87
2023-11-21T11:31:14.070Z,6.73
2023-11-21T11:33:45.667Z,5.97
2023-11-21T11:36:19.678Z,6.53
2023-11-21T11:38:50.599Z,5.13
2023-11-21T11:41:28.627Z,5.53
2023-11-21T11:43:56.805Z,5.93
2023-11-21T11:46:43.113Z,5.07
2023-11-21T11:49:10.939Z,5.73
2023-11-21T11:51:38.450Z,6.37
2023-11-21T11:54:08.534Z,6.17
2023-11-21T11:56:39.493Z,6.57
2023-11-21T11:59:10.036Z,6.30
2023-11-21T12:01:37.696Z,5.60
2023-11-21T12:04:32.681Z,4.67
2023-11-21T12:07:04.544Z,5.53
2023-11-21T12:09:33.811Z,5.47
2023-11-21T12:12:04.027Z,6.63
2023-11-21T12:14:33.123Z,5.30
2023-11-21T12:17:01.087Z,5.67
2023-11-21T12:19:28.671Z,7.90
2023-11-21T12:21:56.913Z,5.57
2023-11-21T12:24:24.902Z,6.10
2023-11-21T12:26:52.451Z,7.30
2023-11-21T12:29:21.246Z,6.20
2023-11-21T12:31:51.256Z,5.20
2023-11-21T12:34:18.997Z,7.10
2023-11-21T12:36:47.882Z,8.60
2023-11-21T12:39:15.719Z,4.60
2023-11-21T12:41:43.431Z,5.60
2023-11-21T12:44:13.150Z,6.70
2023-11-21T12:46:46.202Z,4.50
2023-11-21T12:49:18.270Z,5.47
2023-11-21T12:51:46.977Z,6.83
2023-11-21T12:54:15.003Z,5.67
2023-11-21T12:56:42.551Z,6.13
2023-11-21T12:59:16.067Z,5.83
2023-11-21T13:01:46.425Z,6.70
2023-11-21T13:04:13.978Z,6.27
2023-11-21T13:06:42.554Z,7.13
2023-11-21T13:09:11.615Z,6.80
2023-11-21T13:11:41.802Z,8.80
2023-11-21T13:14:11.350Z,7.13
2023-11-21T13:16:40.246Z,5.83
2023-11-21T13:19:09.826Z,6.97
2023-11-21T13:21:37.341Z,5.37
2023-11-21T13:24:05.935Z,6.80
2023-11-21T13:26:34.225Z,5.00
2023-11-21T13:29:01.825Z,6.80
2023-11-21T13:31:33.711Z,6.93
2023-11-21T13:34:06.139Z,6.77
2023-11-21T13:36:36.715Z,10.07
2023-11-21T13:39:08.443Z,5.53
2023-11-21T13:41:36.150Z,6.73
2023-11-21T13:44:16.623Z,6.17
2023-11-21T13:46:45.067Z,6.97
2023-11-21T13:49:12.996Z,6.93
2023-11-21T13:51:45.571Z,6.93
2023-11-21T13:54:13.345Z,8.43
2023-11-21T13:56:42.331Z,6.53
2023-11-21T13:59:19.313Z,6.13
2023-11-21T14:01:57.904Z,6.67
2023-11-21T14:04:43.239Z,6.50
2023-11-21T14:07:26.141Z,5.77
2023-11-21T14:09:53.955Z,7.80
2023-11-21T14:12:21.487Z,6.13
2023-11-21T14:14:49.857Z,6.47
2023-11-21T14:17:17.508Z,7.20
2023-11-21T14:19:45.523Z,7.97
2023-11-21T14:22:14.663Z,7.63
2023-11-21T14:24:47.461Z,8.40
2023-11-21T14:27:15.858Z,10.27
2023-11-21T14:29:46.502Z,8.27
2023-11-21T14:32:15.396Z,7.60
2023-11-21T14:34:46.394Z,6.87
2023-11-21T14:37:15.406Z,6.57
2023-11-21T14:39:45.843Z,6.87
2023-11-21T14:42:15.949Z,6.17
2023-11-21T14:44:43.810Z,6.53
2023-11-21T14:47:16.130Z,8.00
2023-11-21T14:49:53.561Z,7.40
2023-11-21T14:52:35.205Z,9.60
2023-11-21T14:55:26.957Z,7.33
2023-11-21T14:57:54.440Z,5.80
2023-11-21T15:00:45.676Z,5.70
2023-11-21T15:03:27.867Z,5.77
2023-11-21T15:05:55.536Z,5.30
2023-11-21T15:08:29.493Z,5.87
2023-11-21T15:10:57.061Z,6.83
2023-11-21T15:13:25.213Z,5.80
2023-11-21T15:15:55.110Z,4.87
2023-11-21T15:18:23.294Z,7.07
2023-11-21T15:20:50.814Z,7.23
2023-11-21T15:23:19.959Z,4.27
2023-11-21T15:25:48.908Z,6.63
2023-11-21T15:28:18.326Z,5.80
2023-11-21T15:30:48.787Z,7.93
2023-11-21T15:33:16.404Z,5.53
2023-11-21T15:35:43.924Z,5.37
2023-11-21T15:38:11.412Z,5.23
2023-11-21T15:40:38.966Z,5.60
2023-11-21T15:43:08.192Z,8.10
2023-11-21T15:45:35.806Z,7.40
2023-11-21T15:48:04.253Z,6.63
2023-11-21T15:50:32.720Z,7.27
2023-11-21T15:53:00.471Z,8.13
2023-11-21T15:55:28.103Z,10.03
2023-11-21T15:57:55.670Z,9.00
2023-11-21T16:00:25.428Z,9.40
2023-11-21T16:02:54.456Z,8.00
2023-11-21T16:05:22.167Z,6.70
2023-11-21T16:07:49.706Z,6.20
2023-11-21T16:10:17.465Z,5.63
2023-11-21T16:12:45.146Z,6.67
2023-11-21T16:15:13.088Z,8.93
2023-11-21T16:17:42.729Z,6.77
2023-11-21T16:20:12.154Z,8.93
2023-11-21T16:22:40.007Z,7.93
2023-11-21T16:25:12.201Z,6.10
2023-11-21T16:27:39.882Z,6.67
2023-11-21T16:30:09.684Z,5.70
2023-11-21T16:32:38.009Z,7.17
2023-11-21T16:35:07.892Z,5.83
2023-11-21T16:37:35.462Z,6.33
2023-11-21T16:40:07.483Z,9.17
2023-11-21T16:42:35.588Z,6.67
2023-11-21T16:45:03.956Z,6.80
2023-11-21T16:47:33.519Z,5.27
2023-11-21T16:50:01.490Z,6.97
2023-11-21T16:52:30.515Z,4.90
2023-11-21T16:54:58.138Z,5.70
2023-11-21T16:57:25.625Z,5.80
2023-11-21T16:59:53.087Z,6.93
2023-11-21T17:02:21.423Z,5.67
2023-11-21T17:04:50.797Z,7.03
2023-11-21T17:07:23.887Z,4.97
2023-11-21T17:09:52.928Z,5.43
2023-11-21T17:12:20.409Z,3.73
2023-11-21T17:14:50.032Z,5.03
2023-11-21T17:17:17.850Z,4.60
2023-11-21T17:19:45.726Z,5.23
2023-11-21T17:22:13.333Z,4.57
2023-11-21T17:24:41.169Z,4.17
2023-11-21T17:27:11.222Z,3.60
2023-11-21T17:29:38.795Z,4.23
2023-11-21T17:32:06.912Z,4.87
2023-11-21T17:34:34.479Z,3.40
2023-11-21T17:37:02.662Z,4.57
2023-11-21T17:39:30.134Z,4.60
2023-11-21T17:41:57.669Z,4.40
2023-11-21T17:44:26.896Z,4.17
2023-11-21T17:46:54.484Z,3.57
2023-11-21T17:49:21.958Z,3.73
2023-11-21T17:51:49.458Z,2.67
2023-11-21T17:54:16.994Z,2.90
2023-11-21T17:56:44.493Z,3.40
2023-11-21T17:59:12.081Z,2.47
2023-11-21T18:01:43.419Z,3.93
2023-11-21T18:04:12.260Z,3.60
2023-11-21T18:06:40.260Z,3.50
2023-11-21T18:09:09.918Z,3.90
2023-11-21T18:11:37.560Z,3.90
2023-11-21T18:14:10.379Z,3.30
2023-11-21T18:16:39.745Z,3.40
2023-11-21T18:19:09.873Z,2.90
2023-11-21T18:21:41.460Z,2.87
2023-11-21T18:24:10.549Z,3.57
2023-11-21T18:26:38.440Z,3.27
2023-11-21T18:29:06.458Z,3.90
2023-11-21T18:31:34.012Z,3.90
2023-11-21T18:34:01.962Z,4.03
2023-11-21T18:36:30.792Z,5.20
2023-11-21T18:38:58.279Z,4.03
2023-11-21T18:41:25.915Z,3.90
2023-11-21T18:43:54.927Z,4.97
2023-11-21T18:46:22.949Z,4.30
2023-11-21T18:48:50.627Z,5.00
2023-11-21T18:51:18.778Z,4.10
2023-11-21T18:53:47.658Z,4.50
2023-11-21T18:56:24.553Z,4.60
2023-11-21T18:58:52.341Z,5.10
2023-11-21T19:01:27.218Z,4.37
2023-11-21T19:03:55.191Z,4.23
2023-11-21T19:06:22.968Z,4.83
2023-11-21T19:08:51.831Z,4.07
2023-11-21T19:11:20.480Z,5.20
2023-11-21T19:13:48.299Z,4.83
2023-11-21T19:16:16.381Z,4.50
2023-11-21T19:18:44.112Z,5.00
2023-11-21T19:21:16.366Z,5.97
2023-11-21T19:23:43.929Z,4.80
2023-11-21T19:26:13.230Z,4.63
2023-11-21T19:28:40.818Z,4.30
2023-11-21T19:31:08.401Z,6.40
2023-11-21T19:33:35.930Z,4.80
2023-11-21T19:36:04.203Z,5.33
2023-11-21T19:38:32.461Z,5.03
2023-11-21T19:40:59.973Z,5.43
2023-11-21T19:43:28.792Z,5.87
2023-11-21T19:45:57.198Z,5.33
2023-11-21T19:48:26.875Z,4.73
2023-11-21T19:50:54.372Z,5.30
2023-11-21T19:53:21.917Z,4.90
2023-11-21T19:55:49.453Z,5.57
2023-11-21T19:58:18.601Z,4.70
2023-11-21T20:00:47.740Z,6.70
2023-11-21T20:03:15.566Z,5.10
2023-11-21T20:05:43.113Z,5.57
2023-11-21T20:08:12.121Z,6.23
2023-11-21T20:10:40.113Z,5.50
2023-11-21T20:13:07.920Z,5.30
2023-11-21T20:15:35.488Z,5.23
2023-11-21T20:18:04.935Z,5.10
2023-11-21T20:20:33.453Z,5.10
2023-11-21T20:23:01.138Z,4.40
2023-11-21T20:25:30.274Z,4.97
2023-11-21T20:27:59.460Z,5.27
2023-11-21T20:30:28.678Z,5.07
2023-11-21T20:32:56.498Z,5.50
2023-11-21T20:35:25.650Z,5.33
2023-11-21T20:37:53.235Z,5.60
2023-11-21T20:40:20.842Z,4.67
2023-11-21T20:42:48.480Z,4.57
2023-11-21T20:45:16.318Z,4.47
2023-11-21T20:47:44.495Z,4.90
2023-11-21T20:50:12.332Z,4.83
2023-11-21T20:52:42.372Z,4.23
2023-11-21T20:55:10.160Z,4.17
2023-11-21T20:57:37.705Z,4.73
2023-11-21T21:00:11.208Z,4.20
2023-11-21T21:02:38.914Z,4.20
2023-11-21T21:05:07.756Z,4.07
2023-11-21T21:07:35.299Z,5.27
2023-11-21T21:10:06.073Z,5.67
2023-11-21T21:12:33.584Z,4.00
2023-11-21T21:15:01.119Z,4.50
2023-11-21T21:17:28.735Z,3.93
2023-11-21T21:19:56.535Z,3.93
2023-11-21T21:22:24.009Z,5.40
2023-11-21T21:24:51.524Z,5.23
2023-11-21T21:27:20.351Z,5.40
2023-11-21T21:29:47.828Z,4.63
2023-11-21T21:32:15.316Z,3.70
2023-11-21T21:34:42.807Z,4.27
2023-11-21T21:37:10.545Z,4.00
2023-11-21T21:39:39.028Z,3.57
2023-11-21T21:42:07.220Z,4.07
2023-11-21T21:44:35.984Z,4.10
2023-11-21T21:47:03.623Z,4.93
2023-11-21T21:49:31.109Z,4.33
2023-11-21T21:52:00.826Z,3.50
2023-11-21T21:54:28.990Z,4.47
2023-11-21T21:56:56.491Z,4.83
2023-11-21T21:59:24.035Z,3.93
2023-11-21T22:01:54.188Z,3.60
2023-11-21T22:04:21.824Z,5.57
2023-11-21T22:06:49.408Z,3.40
2023-11-21T22:09:17.426Z,3.77
2023-11-21T22:11:45.067Z,3.60
2023-11-21T22:14:13.284Z,3.50
2023-11-21T22:16:40.906Z,3.20
2023-11-21T22:19:11.292Z,3.23
2023-11-21T22:21:38.757Z,3.20
2023-11-21T22:24:08.119Z,3.27
2023-11-21T22:26:35.634Z,3.20
2023-11-21T22:29:03.122Z,4.47
2023-11-21T22:31:30.682Z,3.10
2023-11-21T22:33:58.822Z,3.40
2023-11-21T22:36:27.766Z,3.83
2023-11-21T22:38:55.646Z,3.37
2023-11-21T22:41:26.485Z,3.87
2023-11-21T22:43:55.301Z,4.30
2023-11-21T22:46:23.893Z,2.90
2023-11-21T22:48:52.231Z,3.27
2023-11-21T22:51:21.505Z,3.23
2023-11-21T22:53:50.608Z,2.87
2023-11-21T22:56:22.806Z,4.20
2023-11-21T22:58:50.787Z,2.90
2023-11-21T23:01:20.683Z,3.00
2023-11-21T23:03:48.280Z,4.97
2023-11-21T23:06:17.722Z,2.93
2023-11-21T23:08:45.293Z,3.10
2023-11-21T23:11:15.578Z,3.50
2023-11-21T23:13:43.466Z,2.80
2023-11-21T23:16:11.206Z,3.17
2023-11-21T23:18:39.747Z,3.10
2023-11-21T23:21:10.499Z,5.00
2023-11-21T23:23:40.272Z,5.23
2023-11-21T23:26:07.885Z,2.73
2023-11-21T23:28:36.986Z,3.53
2023-11-21T23:31:04.437Z,2.77
2023-11-21T23:33:32.274Z,3.10
2023-11-21T23:36:00.041Z,3.37
2023-11-21T23:38:27.601Z,5.50
2023-11-21T23:40:55.528Z,3.40
2023-11-21T23:43:23.111Z,4.20
2023-11-21T23:45:52.411Z,4.07
2023-11-21T23:48:19.873Z,3.50
2023-11-21T23:50:47.830Z,3.70
2023-11-21T23:53:15.413Z,4.07
2023-11-21T23:55:42.906Z,3.70
2023-11-21T23:58:10.384Z,5.03
